createdAt,value
2018-07-31T00:02:14.333Z,20.33
2018-07-31T00:04:42.865Z,17.17
2018-07-31T00:07:13.641Z,15.00
2018-07-31T00:09:42.343Z,25.00
2018-07-31T00:12:10.878Z,19.43
2018-07-31T00:14:39.805Z,12.20
2018-07-31T00:17:08.604Z,18.80
2018-07-31T00:19:37.113Z,15.63
2018-07-31T00:22:05.686Z,13.07
2018-07-31T00:24:34.274Z,12.77
2018-07-31T00:27:03.075Z,19.20
2018-07-31T00:29:31.625Z,9.07
2018-07-31T00:32:00.132Z,10.27
2018-07-31T00:34:28.650Z,15.40
2018-07-31T00:36:57.186Z,9.00
2018-07-31T00:39:25.718Z,9.43
2018-07-31T00:41:54.249Z,5.77
2018-07-31T00:44:22.765Z,6.97
2018-07-31T00:46:51.268Z,8.30
2018-07-31T00:49:20.770Z,10.60
2018-07-31T00:51:49.245Z,11.43
2018-07-31T00:54:17.892Z,9.60
2018-07-31T00:56:46.371Z,6.73
2018-07-31T00:59:14.866Z,9.40
2018-07-31T01:01:43.427Z,11.00
2018-07-31T01:04:11.901Z,7.07
2018-07-31T01:06:42.303Z,11.93
2018-07-31T01:09:12.093Z,7.73
2018-07-31T01:11:40.961Z,8.30
2018-07-31T01:14:10.337Z,6.83
2018-07-31T01:16:40.280Z,6.93
2018-07-31T01:19:09.377Z,9.73
2018-07-31T01:21:37.904Z,8.53
2018-07-31T01:24:06.892Z,10.90
2018-07-31T01:26:35.581Z,8.53
2018-07-31T01:29:04.161Z,10.83
2018-07-31T01:31:32.663Z,7.00
2018-07-31T01:34:01.170Z,9.97
2018-07-31T01:36:29.763Z,7.20
2018-07-31T01:38:58.245Z,9.37
2018-07-31T01:41:26.798Z,9.60
2018-07-31T01:43:55.313Z,6.50
2018-07-31T01:46:23.825Z,5.67
2018-07-31T01:48:52.326Z,7.63
2018-07-31T01:51:20.817Z,8.23
2018-07-31T01:53:49.347Z,8.80
2018-07-31T01:56:17.865Z,8.50
2018-07-31T01:58:46.411Z,8.67
2018-07-31T02:01:14.941Z,9.40
2018-07-31T02:03:43.431Z,11.53
2018-07-31T02:06:12.217Z,8.03
2018-07-31T02:08:40.745Z,10.60
2018-07-31T02:11:09.255Z,11.27
2018-07-31T02:13:37.892Z,9.43
2018-07-31T02:16:06.382Z,9.20
2018-07-31T02:18:33.889Z,12.20
2018-07-31T02:21:02.409Z,10.60
2018-07-31T02:23:30.888Z,9.27
2018-07-31T02:25:59.404Z,6.90
2018-07-31T02:28:27.970Z,9.60
2018-07-31T02:30:56.565Z,7.50
2018-07-31T02:33:25.080Z,7.70
2018-07-31T02:35:54.029Z,7.60
2018-07-31T02:38:22.631Z,8.77
2018-07-31T02:40:51.149Z,7.87
2018-07-31T02:43:19.636Z,8.87
2018-07-31T02:45:48.151Z,14.50
2018-07-31T02:48:16.632Z,16.40
2018-07-31T02:50:45.185Z,11.77
2018-07-31T02:53:13.705Z,10.83
2018-07-31T02:55:42.292Z,8.47
2018-07-31T02:58:11.310Z,6.43
2018-07-31T03:00:39.861Z,8.73
2018-07-31T03:03:08.440Z,7.70
2018-07-31T03:05:36.930Z,9.17
2018-07-31T03:08:05.974Z,8.60
2018-07-31T03:10:34.578Z,10.57
2018-07-31T03:13:03.140Z,7.40
2018-07-31T03:15:31.686Z,8.03
2018-07-31T03:18:00.187Z,9.63
2018-07-31T03:20:28.938Z,10.80
2018-07-31T03:22:57.484Z,11.53
2018-07-31T03:25:25.990Z,11.87
2018-07-31T03:27:54.505Z,9.40
2018-07-31T03:30:23.153Z,8.73
2018-07-31T03:32:51.658Z,9.33
2018-07-31T03:35:20.136Z,12.30
2018-07-31T03:37:49.006Z,7.97
2018-07-31T03:40:17.569Z,11.47
2018-07-31T03:42:46.141Z,10.63
2018-07-31T03:45:14.696Z,14.23
2018-07-31T03:47:43.186Z,15.13
2018-07-31T03:50:11.796Z,12.10
2018-07-31T03:52:40.313Z,10.60
2018-07-31T03:55:09.208Z,15.80
2018-07-31T03:57:37.748Z,10.13
2018-07-31T04:00:07.347Z,12.47
2018-07-31T04:02:35.945Z,8.40
2018-07-31T04:05:06.678Z,11.70
2018-07-31T04:07:35.238Z,11.17
2018-07-31T04:10:03.931Z,9.30
2018-07-31T04:12:32.426Z,11.20
2018-07-31T04:15:00.971Z,28.13
2018-07-31T04:17:31.421Z,10.10
2018-07-31T04:20:03.289Z,9.67
2018-07-31T04:22:31.947Z,12.90
2018-07-31T04:25:01.006Z,8.70
2018-07-31T04:27:30.473Z,12.73
2018-07-31T04:30:00.469Z,11.10
2018-07-31T04:32:30.094Z,14.87
2018-07-31T04:34:59.371Z,11.90
2018-07-31T04:37:27.877Z,12.67
2018-07-31T04:39:56.422Z,10.00
2018-07-31T04:42:25.390Z,13.97
2018-07-31T04:44:54.682Z,11.10
2018-07-31T04:47:26.558Z,12.73
2018-07-31T04:49:55.065Z,9.70
2018-07-31T04:52:23.556Z,12.57
2018-07-31T04:54:52.444Z,9.87
2018-07-31T04:57:21.057Z,9.23
2018-07-31T04:59:49.769Z,12.50
2018-07-31T05:02:18.334Z,13.60
2018-07-31T05:04:47.204Z,12.20
2018-07-31T05:07:15.736Z,12.97
2018-07-31T05:09:44.644Z,21.00
2018-07-31T05:12:14.177Z,13.73
2018-07-31T05:14:42.717Z,8.73
2018-07-31T05:17:11.672Z,10.17
2018-07-31T05:19:40.209Z,13.80
2018-07-31T05:22:08.783Z,11.07
2018-07-31T05:24:37.367Z,10.80
2018-07-31T05:27:06.064Z,16.30
2018-07-31T05:29:34.697Z,11.63
2018-07-31T05:32:03.430Z,21.47
2018-07-31T05:34:31.928Z,11.77
2018-07-31T05:37:00.521Z,13.43
2018-07-31T05:39:29.064Z,16.87
2018-07-31T05:41:57.558Z,13.80
2018-07-31T05:44:26.229Z,12.67
2018-07-31T05:46:55.011Z,14.63
2018-07-31T05:49:23.949Z,19.07
2018-07-31T05:51:52.709Z,11.50
2018-07-31T05:54:21.307Z,10.73
2018-07-31T05:56:50.726Z,9.00
2018-07-31T05:59:19.250Z,12.03
2018-07-31T06:01:47.785Z,9.10
2018-07-31T06:04:16.277Z,8.23
2018-07-31T06:06:44.863Z,8.88
2018-07-31T06:09:13.589Z,8.75
2018-07-31T06:11:42.152Z,8.73
2018-07-31T06:14:10.683Z,7.85
2018-07-31T06:16:39.535Z,8.88
2018-07-31T06:19:08.438Z,5.45
2018-07-31T06:21:37.231Z,7.40
2018-07-31T06:24:06.299Z,4.90
2018-07-31T06:26:34.793Z,4.45
2018-07-31T06:29:03.358Z,5.22
2018-07-31T06:31:31.958Z,6.83
2018-07-31T06:34:00.477Z,9.73
2018-07-31T06:36:29.018Z,9.23
2018-07-31T06:38:57.566Z,6.97
2018-07-31T06:41:26.077Z,9.77
2018-07-31T06:43:54.619Z,8.07
2018-07-31T06:46:23.246Z,8.20
2018-07-31T06:48:51.797Z,8.93
2018-07-31T06:51:20.465Z,14.37
2018-07-31T06:53:49.010Z,12.00
2018-07-31T06:56:17.556Z,11.60
2018-07-31T06:58:46.077Z,12.90
2018-07-31T07:01:14.632Z,19.50
2018-07-31T07:03:43.169Z,13.90
2018-07-31T07:06:11.690Z,11.30
2018-07-31T07:08:40.241Z,10.40
2018-07-31T07:11:08.810Z,9.27
2018-07-31T07:13:37.424Z,7.53
2018-07-31T07:16:05.978Z,10.00
2018-07-31T07:18:34.541Z,8.73
2018-07-31T07:21:03.526Z,9.90
2018-07-31T07:23:32.135Z,8.63
2018-07-31T07:26:00.925Z,11.50
2018-07-31T07:28:29.449Z,16.77
2018-07-31T07:30:57.948Z,13.13
2018-07-31T07:33:26.585Z,10.53
2018-07-31T07:35:55.073Z,7.40
2018-07-31T07:38:23.822Z,13.20
2018-07-31T07:40:52.565Z,11.83
2018-07-31T07:43:21.062Z,10.43
2018-07-31T07:45:49.619Z,8.57
2018-07-31T07:48:18.174Z,14.13
2018-07-31T07:50:46.707Z,11.63
2018-07-31T07:53:15.510Z,11.07
2018-07-31T07:55:46.915Z,8.80
2018-07-31T07:58:15.731Z,13.33
2018-07-31T08:00:44.344Z,11.80
2018-07-31T08:03:12.976Z,9.03
2018-07-31T08:05:41.493Z,9.90
2018-07-31T08:08:11.320Z,9.87
2018-07-31T08:10:42.237Z,10.83
2018-07-31T08:13:10.741Z,8.23
2018-07-31T08:15:39.282Z,8.27
2018-07-31T08:18:07.887Z,9.40
2018-07-31T08:20:36.440Z,7.60
2018-07-31T08:23:05.346Z,7.70
2018-07-31T08:25:34.033Z,13.57
2018-07-31T08:28:02.581Z,9.73
2018-07-31T08:30:31.493Z,11.30
2018-07-31T08:32:59.990Z,8.30
2018-07-31T08:35:28.853Z,8.90
2018-07-31T08:37:57.790Z,9.63
2018-07-31T08:40:26.298Z,11.03
2018-07-31T08:42:54.850Z,9.23
2018-07-31T08:45:23.505Z,9.30
2018-07-31T08:47:52.236Z,10.20
2018-07-31T08:50:20.823Z,10.63
2018-07-31T08:52:49.534Z,9.90
2018-07-31T08:55:18.275Z,8.53
2018-07-31T08:57:46.815Z,8.73
2018-07-31T09:00:15.378Z,11.63
2018-07-31T09:02:43.944Z,10.40
2018-07-31T09:05:12.641Z,8.57
2018-07-31T09:07:41.305Z,10.40
2018-07-31T09:10:09.833Z,9.00
2018-07-31T09:12:38.402Z,13.83
2018-07-31T09:15:06.985Z,8.93
2018-07-31T09:17:35.560Z,10.70
2018-07-31T09:20:04.139Z,8.90
2018-07-31T09:22:32.730Z,6.67
2018-07-31T09:25:01.295Z,9.23
2018-07-31T09:27:29.875Z,11.10
2018-07-31T09:29:58.399Z,14.80
2018-07-31T09:32:32.174Z,11.70
2018-07-31T09:35:00.759Z,13.97
2018-07-31T09:37:29.241Z,15.20
2018-07-31T09:39:57.752Z,8.63
2018-07-31T09:42:26.301Z,10.33
2018-07-31T09:44:54.818Z,13.90
2018-07-31T09:47:23.373Z,7.37
2018-07-31T09:49:51.862Z,12.60
2018-07-31T09:52:20.680Z,11.77
2018-07-31T09:54:49.220Z,8.23
2018-07-31T09:57:17.788Z,13.50
2018-07-31T09:59:46.531Z,5.80
2018-07-31T10:02:15.065Z,11.83
2018-07-31T10:04:43.577Z,8.03
2018-07-31T10:07:12.305Z,5.27
2018-07-31T10:09:40.946Z,4.67
2018-07-31T10:12:09.784Z,9.57
2018-07-31T10:14:40.943Z,14.67
2018-07-31T10:17:11.153Z,5.10
2018-07-31T10:19:41.069Z,6.90
2018-07-31T10:22:09.654Z,7.40
2018-07-31T10:24:40.503Z,8.87
2018-07-31T10:27:11.090Z,7.40
2018-07-31T10:29:39.639Z,12.47
2018-07-31T10:32:08.184Z,6.23
2018-07-31T10:34:36.697Z,6.07
2018-07-31T10:37:05.698Z,5.33
2018-07-31T10:39:34.835Z,9.20
2018-07-31T10:42:03.350Z,8.77
2018-07-31T10:44:31.858Z,4.63
2018-07-31T10:47:00.474Z,3.80
2018-07-31T10:49:28.995Z,7.60
2018-07-31T10:51:57.513Z,4.40
2018-07-31T10:54:26.078Z,10.00
2018-07-31T10:56:54.668Z,4.45
2018-07-31T10:59:23.177Z,4.10
2018-07-31T11:01:51.753Z,4.50
2018-07-31T11:04:20.355Z,5.00
2018-07-31T11:06:49.030Z,2.80
2018-07-31T11:09:17.557Z,3.93
2018-07-31T11:11:46.098Z,3.50
2018-07-31T11:14:14.567Z,4.60
2018-07-31T11:16:43.129Z,3.37
2018-07-31T11:19:11.621Z,8.50
2018-07-31T11:21:40.151Z,9.53
2018-07-31T11:24:08.742Z,6.10
2018-07-31T11:26:37.354Z,4.80
2018-07-31T11:29:06.108Z,2.77
2018-07-31T11:31:34.602Z,4.40
2018-07-31T11:34:03.567Z,3.35
2018-07-31T11:36:32.141Z,6.90
2018-07-31T11:39:01.061Z,3.52
2018-07-31T11:41:29.562Z,4.90
2018-07-31T11:43:58.181Z,4.43
2018-07-31T11:46:26.638Z,4.58
2018-07-31T11:48:55.162Z,8.60
2018-07-31T11:51:23.686Z,11.03
2018-07-31T11:53:52.266Z,4.33
2018-07-31T11:56:20.759Z,5.25
2018-07-31T11:58:49.329Z,7.03
2018-07-31T12:01:18.031Z,4.55
2018-07-31T12:03:46.604Z,14.73
2018-07-31T12:06:15.130Z,3.12
2018-07-31T12:08:43.672Z,6.65
2018-07-31T12:11:12.149Z,5.85
2018-07-31T12:13:40.764Z,5.42
2018-07-31T12:16:09.251Z,5.50
2018-07-31T12:18:37.791Z,3.72
2018-07-31T12:21:06.493Z,14.83
2018-07-31T12:23:35.427Z,10.23
2018-07-31T12:26:03.904Z,7.20
2018-07-31T12:28:32.388Z,3.93
2018-07-31T12:31:00.884Z,3.23
2018-07-31T12:33:29.794Z,6.10
2018-07-31T12:35:58.362Z,5.67
2018-07-31T12:38:27.677Z,7.37
2018-07-31T12:40:56.161Z,4.33
2018-07-31T12:43:24.747Z,6.22
2018-07-31T12:45:53.241Z,14.83
2018-07-31T12:48:21.816Z,33.23
2018-07-31T12:50:50.313Z,11.90
2018-07-31T12:53:18.839Z,19.60
2018-07-31T12:55:48.411Z,12.87
2018-07-31T12:58:17.330Z,12.23
2018-07-31T13:00:45.878Z,15.60
2018-07-31T13:03:14.385Z,16.80
2018-07-31T13:05:42.947Z,16.03
2018-07-31T13:08:11.436Z,13.87
2018-07-31T13:10:39.986Z,14.33
2018-07-31T13:13:08.506Z,17.33
2018-07-31T13:15:37.112Z,16.03
2018-07-31T13:18:05.682Z,11.77
2018-07-31T13:20:34.329Z,12.50
2018-07-31T13:23:02.859Z,12.53
2018-07-31T13:25:31.553Z,14.70
2018-07-31T13:28:00.334Z,10.10
2018-07-31T13:30:28.826Z,14.20
2018-07-31T13:32:57.349Z,11.90
2018-07-31T13:35:25.868Z,13.03
2018-07-31T13:37:54.429Z,7.77
2018-07-31T13:40:22.952Z,10.83
2018-07-31T13:42:51.474Z,8.47
2018-07-31T13:45:20.017Z,9.13
2018-07-31T13:47:48.553Z,13.13
2018-07-31T13:50:17.098Z,7.20
2018-07-31T13:52:45.632Z,11.53
2018-07-31T13:55:14.379Z,13.53
2018-07-31T13:57:42.929Z,10.67
2018-07-31T14:00:11.503Z,10.70
2018-07-31T14:02:40.694Z,8.23
2018-07-31T14:05:09.521Z,8.07
2018-07-31T14:07:38.458Z,11.47
2018-07-31T14:10:07.031Z,13.70
2018-07-31T14:12:35.572Z,8.60
2018-07-31T14:15:04.550Z,9.80
2018-07-31T14:17:33.221Z,9.17
2018-07-31T14:20:01.762Z,11.13
2018-07-31T14:22:30.296Z,10.27
2018-07-31T14:24:58.831Z,7.57
2018-07-31T14:27:27.470Z,5.57
2018-07-31T14:29:56.138Z,5.73
2018-07-31T14:32:24.714Z,13.30
2018-07-31T14:34:53.287Z,10.83
2018-07-31T14:37:21.819Z,7.40
2018-07-31T14:39:50.531Z,11.40
2018-07-31T14:42:19.194Z,5.40
2018-07-31T14:44:47.726Z,8.10
2018-07-31T14:47:16.285Z,6.00
2018-07-31T14:49:45.800Z,4.97
2018-07-31T14:52:14.325Z,5.40
2018-07-31T14:54:43.242Z,7.00
2018-07-31T14:57:16.545Z,5.67
2018-07-31T14:59:45.246Z,7.73
2018-07-31T15:02:14.022Z,12.30
2018-07-31T15:04:42.506Z,4.70
2018-07-31T15:07:11.054Z,4.23
2018-07-31T15:09:39.677Z,8.00
2018-07-31T15:12:08.282Z,6.70
2018-07-31T15:14:36.817Z,8.03
2018-07-31T15:17:05.406Z,7.07
2018-07-31T15:19:33.997Z,3.10
2018-07-31T15:22:02.530Z,3.87
2018-07-31T15:24:31.078Z,9.00
2018-07-31T15:26:59.694Z,4.43
2018-07-31T15:29:28.391Z,5.90
2018-07-31T15:31:56.985Z,4.07
2018-07-31T15:34:25.549Z,3.47
2018-07-31T15:36:54.283Z,4.90
2018-07-31T15:39:22.786Z,2.60
2018-07-31T15:41:51.322Z,5.43
2018-07-31T15:44:19.873Z,5.53
2018-07-31T15:46:48.437Z,2.20
2018-07-31T15:49:16.988Z,6.80
2018-07-31T15:51:45.557Z,1.97
2018-07-31T15:54:14.073Z,4.60
2018-07-31T15:56:42.597Z,4.40
2018-07-31T15:59:11.154Z,2.90
2018-07-31T16:01:39.691Z,6.50
2018-07-31T16:04:08.301Z,5.83
2018-07-31T16:06:36.909Z,4.30
2018-07-31T16:09:08.112Z,3.10
2018-07-31T16:11:36.824Z,7.57
2018-07-31T16:14:05.324Z,13.20
2018-07-31T16:16:33.980Z,3.90
2018-07-31T16:19:02.534Z,3.93
2018-07-31T16:21:31.623Z,4.27
2018-07-31T16:24:00.177Z,5.63
2018-07-31T16:26:29.413Z,2.30
2018-07-31T16:28:58.063Z,2.70
2018-07-31T16:31:26.732Z,3.40
2018-07-31T16:33:55.290Z,3.43
2018-07-31T16:36:23.861Z,3.83
2018-07-31T16:38:52.712Z,2.90
2018-07-31T16:41:21.303Z,2.97
2018-07-31T16:43:49.964Z,4.50
2018-07-31T16:46:18.562Z,5.53
2018-07-31T16:48:48.577Z,3.90
2018-07-31T16:51:22.224Z,5.70
2018-07-31T16:53:56.906Z,3.50
2018-07-31T16:56:25.739Z,2.73
2018-07-31T16:58:54.877Z,2.80
2018-07-31T17:01:23.392Z,3.17
2018-07-31T17:03:52.023Z,3.77
2018-07-31T17:06:20.561Z,3.47
2018-07-31T17:08:49.736Z,3.83
2018-07-31T17:11:18.270Z,4.00
2018-07-31T17:13:46.836Z,6.63
2018-07-31T17:16:15.411Z,7.40
2018-07-31T17:18:43.974Z,2.97
2018-07-31T17:21:12.575Z,5.90
2018-07-31T17:23:41.139Z,3.83
2018-07-31T17:26:09.676Z,5.10
2018-07-31T17:28:38.366Z,3.93
2018-07-31T17:31:07.215Z,3.97
2018-07-31T17:33:35.719Z,3.30
2018-07-31T17:36:04.401Z,5.73
2018-07-31T17:38:33.109Z,6.43
2018-07-31T17:41:01.619Z,4.67
2018-07-31T17:43:30.169Z,4.50
2018-07-31T17:45:58.736Z,3.30
2018-07-31T17:48:27.285Z,5.63
2018-07-31T17:50:55.929Z,4.63
2018-07-31T17:53:24.807Z,4.10
2018-07-31T17:55:53.309Z,2.20
2018-07-31T17:58:22.812Z,2.50
2018-07-31T18:00:51.369Z,4.33
2018-07-31T18:03:19.943Z,4.60
2018-07-31T18:05:48.581Z,2.40
2018-07-31T18:08:17.107Z,4.63
2018-07-31T18:10:45.650Z,8.17
2018-07-31T18:13:14.315Z,4.53
2018-07-31T18:15:42.985Z,3.17
2018-07-31T18:18:11.617Z,2.50
2018-07-31T18:20:40.255Z,10.10
2018-07-31T18:23:09.402Z,1.80
2018-07-31T18:25:37.936Z,3.27
2018-07-31T18:28:06.481Z,1.83
2018-07-31T18:30:34.969Z,5.57
2018-07-31T18:33:03.651Z,4.17
2018-07-31T18:35:32.223Z,1.83
2018-07-31T18:38:00.912Z,3.50
2018-07-31T18:40:29.503Z,5.90
2018-07-31T18:42:58.031Z,3.13
2018-07-31T18:45:26.689Z,3.43
2018-07-31T18:47:55.302Z,2.67
2018-07-31T18:50:23.819Z,6.23
2018-07-31T18:52:52.362Z,5.20
2018-07-31T18:55:20.868Z,4.17
2018-07-31T18:57:49.422Z,1.93
2018-07-31T19:00:18.494Z,5.43
2018-07-31T19:02:46.998Z,5.13
2018-07-31T19:05:15.643Z,7.20
2018-07-31T19:07:44.247Z,2.07
2018-07-31T19:10:12.799Z,12.03
2018-07-31T19:12:41.359Z,3.13
2018-07-31T19:15:09.897Z,3.73
2018-07-31T19:17:38.537Z,5.07
2018-07-31T19:20:07.300Z,4.37
2018-07-31T19:22:35.858Z,4.10
2018-07-31T19:25:05.154Z,4.20
2018-07-31T19:27:33.710Z,6.40
2018-07-31T19:30:03.021Z,4.33
2018-07-31T19:32:31.559Z,10.63
2018-07-31T19:35:00.201Z,7.40
2018-07-31T19:37:28.838Z,2.73
2018-07-31T19:39:57.398Z,4.97
2018-07-31T19:42:26.236Z,6.50
2018-07-31T19:44:55.005Z,2.30
2018-07-31T19:47:23.609Z,2.90
2018-07-31T19:49:52.191Z,8.77
2018-07-31T19:52:20.725Z,3.43
2018-07-31T19:54:49.288Z,4.00
2018-07-31T19:57:17.783Z,4.17
2018-07-31T19:59:46.407Z,2.70
2018-07-31T20:02:14.907Z,2.00
2018-07-31T20:04:43.536Z,4.97
2018-07-31T20:07:12.126Z,7.33
2018-07-31T20:09:40.620Z,5.80
2018-07-31T20:12:10.157Z,5.23
2018-07-31T20:14:38.749Z,5.10
2018-07-31T20:17:07.419Z,8.70
2018-07-31T20:19:35.978Z,6.30
2018-07-31T20:22:04.565Z,3.73
2018-07-31T20:24:33.065Z,4.70
2018-07-31T20:27:01.606Z,6.00
2018-07-31T20:29:30.146Z,7.83
2018-07-31T20:31:58.986Z,8.80
2018-07-31T20:34:27.480Z,3.43
2018-07-31T20:36:56.003Z,5.20
2018-07-31T20:39:24.635Z,4.83
2018-07-31T20:41:53.282Z,5.20
2018-07-31T20:44:21.795Z,5.10
2018-07-31T20:46:50.422Z,5.40
2018-07-31T20:49:18.996Z,5.50
2018-07-31T20:51:47.560Z,3.97
2018-07-31T20:54:16.069Z,3.80
2018-07-31T20:56:44.648Z,5.83
2018-07-31T20:59:13.219Z,5.37
2018-07-31T21:01:41.738Z,7.40
2018-07-31T21:04:10.253Z,8.40
2018-07-31T21:06:38.951Z,6.63
2018-07-31T21:09:10.025Z,9.43
2018-07-31T21:11:38.948Z,3.37
2018-07-31T21:14:07.543Z,3.63
2018-07-31T21:16:36.050Z,4.33
2018-07-31T21:19:04.582Z,4.60
2018-07-31T21:21:33.146Z,3.40
2018-07-31T21:24:01.653Z,10.73
2018-07-31T21:26:30.131Z,8.83
2018-07-31T21:29:01.686Z,1.67
2018-07-31T21:31:30.282Z,4.77
2018-07-31T21:33:58.915Z,5.40
2018-07-31T21:36:27.690Z,8.00
2018-07-31T21:38:56.211Z,8.93
2018-07-31T21:41:24.720Z,4.83
2018-07-31T21:43:53.418Z,4.80
2018-07-31T21:46:21.958Z,6.03
2018-07-31T21:48:50.466Z,5.07
2018-07-31T21:51:18.991Z,3.67
2018-07-31T21:53:47.572Z,7.67
2018-07-31T21:56:16.054Z,5.87
2018-07-31T21:58:44.526Z,8.87
2018-07-31T22:01:13.090Z,5.30
2018-07-31T22:03:41.740Z,7.63
2018-07-31T22:06:10.306Z,7.70
2018-07-31T22:08:39.010Z,11.73
2018-07-31T22:11:07.790Z,8.03
2018-07-31T22:13:36.318Z,5.63
2018-07-31T22:16:04.871Z,3.83
2018-07-31T22:18:33.398Z,3.70
2018-07-31T22:21:02.088Z,4.50
2018-07-31T22:23:30.645Z,4.87
2018-07-31T22:25:59.251Z,5.83
2018-07-31T22:28:27.768Z,5.17
2018-07-31T22:30:56.361Z,3.63
2018-07-31T22:33:24.857Z,6.40
2018-07-31T22:35:53.358Z,4.13
2018-07-31T22:38:22.618Z,2.90
2018-07-31T22:40:51.245Z,2.43
2018-07-31T22:43:19.845Z,3.77
2018-07-31T22:45:48.538Z,11.80
2018-07-31T22:48:17.027Z,2.97
2018-07-31T22:50:45.498Z,6.60
2018-07-31T22:53:14.003Z,4.83
2018-07-31T22:55:42.538Z,8.53
2018-07-31T22:58:11.050Z,2.90
2018-07-31T23:00:39.578Z,3.33
2018-07-31T23:03:08.338Z,3.50
2018-07-31T23:05:36.933Z,4.83
2018-07-31T23:08:05.605Z,4.10
2018-07-31T23:10:34.103Z,7.93
2018-07-31T23:13:02.649Z,5.27
2018-07-31T23:15:31.198Z,7.13
2018-07-31T23:17:59.750Z,5.63
2018-07-31T23:20:28.254Z,3.80
2018-07-31T23:22:56.737Z,5.53
2018-07-31T23:25:25.294Z,4.10
2018-07-31T23:27:53.793Z,12.77
2018-07-31T23:30:22.280Z,6.53
2018-07-31T23:32:50.826Z,7.10
2018-07-31T23:35:19.326Z,8.00
2018-07-31T23:37:47.805Z,10.57
2018-07-31T23:40:16.321Z,4.73
2018-07-31T23:42:44.829Z,8.47
2018-07-31T23:45:13.838Z,5.73
2018-07-31T23:47:42.366Z,4.73
2018-07-31T23:50:11.858Z,4.47
2018-07-31T23:52:40.514Z,4.30
2018-07-31T23:55:09.206Z,5.00
2018-07-31T23:57:37.723Z,7.50
